Time;durP1;ratioP1;P1;durP2;ratioP2;P2;SDS_P1;SDS_P2;PMS_P1;PMS_P2;Temp;Humidity;BMP_temperature;BMP_pressure;BME280_temperature;BME280_humidity;BME280_pressure;Samples;Min_cycle;Max_cycle;Signal;HPM_P1;HPM_P2
2022/07/03 00:00:19;;;;;;;;;;;18.40;99.90;;;;;;5049978;28;19916;-49
2022/07/03 00:02:45;;;;;;;;;;;18.40;99.90;;;;;;5049058;28;19956;-55
2022/07/03 00:05:10;;;;;;;;;;;18.40;99.90;;;;;;5081750;28;19920;-50
2022/07/03 00:07:37;;;;;;;;;;;18.40;99.90;;;;;;5084421;28;20295;-49
2022/07/03 00:10:02;;;;;;;;;;;18.30;99.90;;;;;;5068673;28;19920;-52
2022/07/03 00:12:28;;;;;;;;;;;18.30;99.90;;;;;;5074351;28;19917;-50
2022/07/03 00:14:54;;;;;;;;;;;18.30;99.90;;;;;;5069355;28;19927;-49
2022/07/03 00:17:19;;;;;;;;;;;18.30;99.90;;;;;;5068483;28;19955;-48
2022/07/03 00:19:45;;;;;;;;;;;18.30;99.90;;;;;;5061617;28;19916;-52
2022/07/03 00:22:11;;;;;;;;;;;18.30;99.90;;;;;;5068154;28;20425;-52
2022/07/03 00:24:37;;;;;;;;;;;18.30;99.90;;;;;;5076119;28;19999;-52
2022/07/03 00:27:03;;;;;;;;;;;18.30;99.90;;;;;;5068473;28;20011;-48
2022/07/03 00:29:36;;;;;;;;;;;18.30;99.90;;;;;;5072925;28;20349;-52
2022/07/03 00:32:02;;;;;;;;;;;18.30;99.90;;;;;;5067419;28;19995;-49
2022/07/03 00:34:28;;;;;;;;;;;18.30;99.90;;;;;;5078883;28;20428;-49
2022/07/03 00:36:56;;;;;;;;;;;18.30;99.90;;;;;;5078208;28;19974;-48
2022/07/03 00:39:22;;;;;;;;;;;18.30;99.90;;;;;;5076040;28;20357;-49
2022/07/03 00:41:58;;;;;;;;;;;18.30;99.90;;;;;;5075216;28;19948;-54
2022/07/03 00:44:25;;;;;;;;;;;18.30;99.90;;;;;;5068934;28;20304;-52
2022/07/03 00:46:52;;;;;;;;;;;18.30;99.90;;;;;;5055751;28;19950;-48
2022/07/03 00:49:18;;;;;;;;;;;18.20;99.90;;;;;;5049719;28;19917;-48
2022/07/03 00:51:49;;;;;;;;;;;18.20;99.90;;;;;;5049453;28;19920;-49
2022/07/03 00:54:16;;;;;;;;;;;18.20;99.90;;;;;;5048934;28;19924;-51
2022/07/03 00:56:46;;;;;;;;;;;18.20;99.90;;;;;;5057525;28;19925;-48
2022/07/03 00:59:11;;;;;;;;;;;18.20;99.90;;;;;;5072953;28;20393;-48
2022/07/03 01:01:38;;;;;;;;;;;18.20;99.90;;;;;;5072569;28;19916;-48
2022/07/03 01:04:13;;;;;;;;;;;18.10;99.90;;;;;;5072528;28;20292;-51
2022/07/03 01:06:53;;;;;;;;;;;18.10;99.90;;;;;;5068647;28;19962;-52
2022/07/03 01:09:23;;;;;;;;;;;18.10;99.90;;;;;;5051635;28;19927;-51
2022/07/03 01:11:54;;;;;;;;;;;18.00;99.90;;;;;;5052612;28;19935;-49
2022/07/03 01:14:38;;;;;;;;;;;17.90;99.90;;;;;;5052666;28;19999;-49
2022/07/03 01:17:05;;;;;;;;;;;17.80;99.90;;;;;;5066840;28;19927;-51
2022/07/03 01:19:52;;;;;;;;;;;17.80;99.90;;;;;;5072912;28;19998;-48
2022/07/03 01:22:27;;;;;;;;;;;17.80;99.90;;;;;;5071556;28;20177;-49
2022/07/03 01:25:02;;;;;;;;;;;17.70;99.90;;;;;;5067466;28;19924;-51
2022/07/03 01:27:30;;;;;;;;;;;17.70;99.90;;;;;;5053146;28;19924;-48
2022/07/03 01:30:07;;;;;;;;;;;17.70;99.90;;;;;;5050857;28;19967;-52
2022/07/03 01:32:46;;;;;;;;;;;17.60;99.90;;;;;;5052157;28;20382;-49
2022/07/03 01:35:13;;;;;;;;;;;17.60;99.90;;;;;;5052648;28;19929;-48
2022/07/03 01:37:39;;;;;;;;;;;17.60;99.90;;;;;;5051856;28;19916;-51
2022/07/03 01:40:05;;;;;;;;;;;17.60;99.90;;;;;;5053143;28;19920;-50
2022/07/03 01:42:32;;;;;;;;;;;17.60;99.90;;;;;;5062319;28;19928;-52
2022/07/03 01:44:58;;;;;;;;;;;17.60;99.90;;;;;;5072667;28;19932;-48
2022/07/03 01:47:24;;;;;;;;;;;17.60;99.90;;;;;;5080241;28;19915;-52
2022/07/03 01:49:50;;;;;;;;;;;17.50;99.90;;;;;;5065163;28;19917;-49
2022/07/03 01:52:16;;;;;;;;;;;17.40;99.90;;;;;;5052024;28;20281;-50
2022/07/03 01:54:44;;;;;;;;;;;17.30;99.90;;;;;;5051306;28;19921;-52
2022/07/03 01:57:09;;;;;;;;;;;17.20;99.90;;;;;;5052856;28;19925;-51
2022/07/03 01:59:35;;;;;;;;;;;17.10;99.90;;;;;;5052186;28;20459;-49
2022/07/03 02:02:08;;;;;;;;;;;17.00;99.90;;;;;;5051640;28;19921;-48
2022/07/03 02:04:41;;;;;;;;;;;16.90;99.90;;;;;;5051784;28;20010;-51
2022/07/03 02:07:20;;;;;;;;;;;16.90;99.90;;;;;;5051834;28;19917;-49
2022/07/03 02:09:45;;;;;;;;;;;16.90;99.90;;;;;;5068493;28;20454;-48
2022/07/03 02:12:12;;;;;;;;;;;16.80;99.90;;;;;;5070795;28;19920;-48
2022/07/03 02:14:39;;;;;;;;;;;16.80;99.90;;;;;;5055045;28;20642;-48
2022/07/03 02:17:10;;;;;;;;;;;16.80;99.90;;;;;;5051217;28;19952;-50
2022/07/03 02:19:52;;;;;;;;;;;16.80;99.90;;;;;;5051174;28;20370;-48
2022/07/03 02:22:21;;;;;;;;;;;16.70;99.90;;;;;;5050023;28;20417;-50
2022/07/03 02:24:47;;;;;;;;;;;16.70;99.90;;;;;;5052071;28;19955;-50
2022/07/03 02:27:15;;;;;;;;;;;16.60;99.90;;;;;;5051212;28;19948;-48
2022/07/03 02:29:46;;;;;;;;;;;16.50;99.90;;;;;;5051570;28;19921;-51
2022/07/03 02:32:13;;;;;;;;;;;16.50;99.90;;;;;;5050995;28;19920;-51
2022/07/03 02:34:42;;;;;;;;;;;16.50;99.90;;;;;;5057959;28;19974;-52
2022/07/03 02:37:13;;;;;;;;;;;16.40;99.90;;;;;;5071181;28;19924;-51
2022/07/03 02:39:48;;;;;;;;;;;16.40;99.90;;;;;;5070715;28;20369;-50
2022/07/03 02:42:27;;;;;;;;;;;16.40;99.90;;;;;;5057626;28;19963;-48
2022/07/03 02:44:54;;;;;;;;;;;16.40;99.90;;;;;;5050976;28;19954;-50
2022/07/03 02:47:38;;;;;;;;;;;16.30;99.90;;;;;;5052443;28;19920;-49
2022/07/03 02:50:04;;;;;;;;;;;16.30;99.90;;;;;;5074728;28;19969;-50
2022/07/03 02:52:34;;;;;;;;;;;16.30;99.90;;;;;;5089002;28;19916;-51
2022/07/03 02:55:04;;;;;;;;;;;16.20;99.90;;;;;;5068112;28;20440;-49
2022/07/03 02:57:36;;;;;;;;;;;16.20;99.90;;;;;;5063105;28;19985;-50
2022/07/03 03:00:04;;;;;;;;;;;16.20;99.90;;;;;;5062467;28;19916;-48
2022/07/03 03:02:29;;;;;;;;;;;16.30;99.90;;;;;;5070287;28;19917;-50
2022/07/03 03:04:58;;;;;;;;;;;16.30;99.90;;;;;;5069927;28;19924;-50
2022/07/03 03:07:28;;;;;;;;;;;16.20;99.90;;;;;;5068750;28;19969;-49
2022/07/03 03:09:55;;;;;;;;;;;16.20;99.90;;;;;;5069925;28;19916;-49
2022/07/03 03:12:24;;;;;;;;;;;16.20;99.90;;;;;;5055601;28;20337;-48
2022/07/03 03:14:54;;;;;;;;;;;16.10;99.90;;;;;;5049708;28;19967;-53
2022/07/03 03:17:23;;;;;;;;;;;16.10;99.90;;;;;;5051287;28;19927;-51
2022/07/03 03:19:55;;;;;;;;;;;16.00;99.90;;;;;;5050535;28;19967;-49
2022/07/03 03:22:23;;;;;;;;;;;16.00;99.90;;;;;;5049715;28;19921;-49
2022/07/03 03:24:50;;;;;;;;;;;15.90;99.90;;;;;;5049966;28;20388;-48
2022/07/03 03:27:15;;;;;;;;;;;15.90;99.90;;;;;;5051347;28;20555;-48
2022/07/03 03:29:41;;;;;;;;;;;15.90;99.90;;;;;;5050644;28;19967;-49
2022/07/03 03:32:07;;;;;;;;;;;15.80;99.90;;;;;;5050130;28;19917;-51
2022/07/03 03:34:32;;;;;;;;;;;15.90;99.90;;;;;;5049519;28;19916;-50
2022/07/03 03:36:58;;;;;;;;;;;15.90;99.90;;;;;;5050538;28;19943;-48
2022/07/03 03:39:24;;;;;;;;;;;15.90;99.90;;;;;;5050284;28;19923;-48
2022/07/03 03:41:49;;;;;;;;;;;15.90;99.90;;;;;;5050172;28;19999;-48
2022/07/03 03:44:15;;;;;;;;;;;15.90;99.90;;;;;;5049654;28;19917;-49
2022/07/03 03:46:41;;;;;;;;;;;15.90;99.90;;;;;;5050297;28;19921;-48
2022/07/03 03:49:06;;;;;;;;;;;15.80;99.90;;;;;;5051408;28;20297;-51
2022/07/03 03:51:32;;;;;;;;;;;15.80;99.90;;;;;;5049802;28;19924;-48
2022/07/03 03:53:57;;;;;;;;;;;15.70;99.90;;;;;;5049878;28;20381;-51
2022/07/03 03:56:24;;;;;;;;;;;15.70;99.90;;;;;;5049976;28;20023;-49
2022/07/03 03:58:49;;;;;;;;;;;15.70;99.90;;;;;;5058345;28;19967;-51
2022/07/03 04:01:15;;;;;;;;;;;15.70;99.90;;;;;;5070624;28;19967;-48
2022/07/03 04:03:41;;;;;;;;;;;15.70;99.90;;;;;;5060146;28;19920;-49
2022/07/03 04:06:07;;;;;;;;;;;15.80;99.90;;;;;;5076167;28;19917;-51
2022/07/03 04:08:32;;;;;;;;;;;15.80;99.90;;;;;;5073023;28;19923;-49
2022/07/03 04:10:58;;;;;;;;;;;15.80;99.90;;;;;;5048713;28;19917;-51
2022/07/03 04:13:24;;;;;;;;;;;15.80;99.90;;;;;;5048876;28;19920;-48
2022/07/03 04:15:50;;;;;;;;;;;15.80;99.90;;;;;;5049528;28;19925;-48
2022/07/03 04:18:16;;;;;;;;;;;15.80;99.90;;;;;;5050007;28;19916;-48
2022/07/03 04:20:41;;;;;;;;;;;15.80;99.90;;;;;;5064428;28;19947;-48
2022/07/03 04:23:07;;;;;;;;;;;15.90;99.90;;;;;;5068352;28;20381;-48
2022/07/03 04:25:32;;;;;;;;;;;15.90;99.90;;;;;;5052709;28;19948;-49
2022/07/03 04:27:58;;;;;;;;;;;15.90;99.90;;;;;;5049135;28;19964;-52
2022/07/03 04:30:24;;;;;;;;;;;16.00;99.90;;;;;;5059357;28;20007;-48
2022/07/03 04:32:49;;;;;;;;;;;16.00;99.90;;;;;;5066881;28;20393;-51
2022/07/03 04:35:15;;;;;;;;;;;16.10;99.90;;;;;;5053330;28;20449;-50
2022/07/03 04:37:41;;;;;;;;;;;16.10;99.90;;;;;;5053547;28;19928;-49
2022/07/03 04:40:07;;;;;;;;;;;16.20;99.90;;;;;;5054202;28;19940;-49
2022/07/03 04:42:32;;;;;;;;;;;16.20;99.90;;;;;;5053531;28;19916;-48
2022/07/03 04:44:58;;;;;;;;;;;16.20;99.90;;;;;;5052555;28;19966;-52
2022/07/03 04:47:23;;;;;;;;;;;16.30;99.90;;;;;;5053251;28;19923;-49
2022/07/03 04:49:49;;;;;;;;;;;16.40;99.90;;;;;;5052900;28;19916;-54
2022/07/03 04:52:14;;;;;;;;;;;16.40;99.90;;;;;;5069271;28;20431;-52
2022/07/03 04:54:40;;;;;;;;;;;16.40;99.90;;;;;;5072510;28;19916;-48
2022/07/03 04:57:05;;;;;;;;;;;16.50;99.90;;;;;;5073102;28;19920;-51
2022/07/03 04:59:31;;;;;;;;;;;16.50;99.90;;;;;;5073311;28;20381;-50
2022/07/03 05:01:56;;;;;;;;;;;16.50;99.90;;;;;;5058553;28;19999;-48
2022/07/03 05:04:22;;;;;;;;;;;16.50;99.90;;;;;;5050873;28;19916;-50
2022/07/03 05:06:47;;;;;;;;;;;16.50;99.90;;;;;;5052509;28;20344;-52
2022/07/03 05:09:13;;;;;;;;;;;16.50;99.90;;;;;;5053115;28;19939;-48
2022/07/03 05:11:38;;;;;;;;;;;16.60;99.90;;;;;;5057316;28;19916;-49
2022/07/03 05:14:04;;;;;;;;;;;16.60;99.90;;;;;;5091042;28;19916;-50
2022/07/03 05:16:30;;;;;;;;;;;16.60;99.90;;;;;;5091119;28;19971;-52
2022/07/03 05:18:56;;;;;;;;;;;16.60;99.90;;;;;;5081238;28;20704;-52
2022/07/03 05:21:21;;;;;;;;;;;16.60;99.90;;;;;;5090514;28;19972;-48
2022/07/03 05:23:47;;;;;;;;;;;16.60;99.90;;;;;;5084495;28;19923;-49
2022/07/03 05:26:12;;;;;;;;;;;16.60;99.90;;;;;;5068251;28;19967;-50
2022/07/03 05:28:37;;;;;;;;;;;16.60;99.90;;;;;;5052501;28;20325;-48
2022/07/03 05:31:03;;;;;;;;;;;16.60;99.90;;;;;;5052467;28;19970;-49
2022/07/03 05:33:29;;;;;;;;;;;16.60;99.90;;;;;;5067118;28;19971;-51
2022/07/03 05:35:55;;;;;;;;;;;16.70;99.90;;;;;;5072117;28;19924;-54
2022/07/03 05:41:04;;;;;;;;;;;16.70;99.90;;;;;;5072174;28;19920;-53
2022/07/03 05:43:30;;;;;;;;;;;16.70;99.90;;;;;;5068541;28;20266;-48
2022/07/03 05:45:55;;;;;;;;;;;16.80;99.90;;;;;;5071750;28;19925;-49
2022/07/03 05:48:21;;;;;;;;;;;16.80;99.90;;;;;;5072034;28;19924;-49
2022/07/03 05:50:46;;;;;;;;;;;16.90;99.90;;;;;;5072269;28;19921;-48
2022/07/03 05:53:12;;;;;;;;;;;17.00;99.90;;;;;;5069644;28;19926;-48
2022/07/03 05:55:37;;;;;;;;;;;17.00;99.90;;;;;;5072038;28;19920;-49
2022/07/03 05:58:03;;;;;;;;;;;17.10;99.90;;;;;;5072015;28;20541;-51
2022/07/03 06:00:28;;;;;;;;;;;17.20;99.90;;;;;;5072124;28;19923;-48
2022/07/03 06:02:54;;;;;;;;;;;17.20;99.90;;;;;;5070432;28;19916;-51
2022/07/03 06:05:19;;;;;;;;;;;17.30;99.90;;;;;;5070735;28;20007;-49
2022/07/03 06:07:45;;;;;;;;;;;17.40;99.90;;;;;;5071030;28;20289;-52
2022/07/03 06:10:10;;;;;;;;;;;17.50;99.90;;;;;;5071751;28;19920;-49
2022/07/03 06:12:36;;;;;;;;;;;17.60;99.90;;;;;;5071286;28;19917;-49
2022/07/03 06:15:01;;;;;;;;;;;17.70;99.90;;;;;;5058330;28;20259;-50
2022/07/03 06:17:27;;;;;;;;;;;17.70;99.90;;;;;;5050862;28;19960;-49
2022/07/03 06:19:52;;;;;;;;;;;17.80;99.90;;;;;;5051860;28;19917;-49
2022/07/03 06:22:18;;;;;;;;;;;17.90;99.90;;;;;;5067404;28;19920;-52
2022/07/03 06:24:43;;;;;;;;;;;18.00;99.90;;;;;;5079226;28;19916;-49
2022/07/03 06:27:09;;;;;;;;;;;18.10;99.90;;;;;;5075816;28;20112;-49
2022/07/03 06:29:34;;;;;;;;;;;18.20;99.90;;;;;;5078660;28;20136;-48
2022/07/03 06:32:00;;;;;;;;;;;18.30;99.90;;;;;;5081781;28;20293;-52
2022/07/03 06:34:25;;;;;;;;;;;18.30;99.90;;;;;;5071056;28;19931;-52
2022/07/03 06:36:51;;;;;;;;;;;18.50;99.90;;;;;;5082776;28;20385;-49
2022/07/03 06:39:16;;;;;;;;;;;18.60;99.90;;;;;;5091383;28;19922;-52
2022/07/03 06:41:42;;;;;;;;;;;18.70;99.90;;;;;;5088278;28;19915;-52
2022/07/03 06:44:07;;;;;;;;;;;18.70;99.90;;;;;;5075449;28;19920;-49
2022/07/03 06:46:33;;;;;;;;;;;18.90;99.90;;;;;;5079452;28;20015;-49
2022/07/03 06:48:58;;;;;;;;;;;18.90;99.90;;;;;;5071479;28;20016;-53
2022/07/03 06:51:24;;;;;;;;;;;19.00;99.90;;;;;;5071659;28;20305;-49
2022/07/03 06:53:49;;;;;;;;;;;19.10;99.90;;;;;;5081554;28;19923;-49
2022/07/03 06:56:15;;;;;;;;;;;19.20;99.90;;;;;;5072646;28;20414;-52
2022/07/03 06:58:40;;;;;;;;;;;19.20;99.90;;;;;;5089884;28;19927;-52
2022/07/03 07:01:06;;;;;;;;;;;19.30;99.90;;;;;;5074145;28;19923;-49
2022/07/03 07:03:31;;;;;;;;;;;19.40;99.90;;;;;;5063915;28;19969;-49
2022/07/03 07:05:57;;;;;;;;;;;19.40;99.90;;;;;;5051706;28;20235;-52
2022/07/03 07:08:22;;;;;;;;;;;19.50;99.90;;;;;;5051039;28;20136;-48
2022/07/03 07:10:48;;;;;;;;;;;19.60;99.90;;;;;;5050659;28;19923;-51
2022/07/03 07:13:13;;;;;;;;;;;19.60;99.90;;;;;;5049630;28;20298;-52
2022/07/03 07:15:39;;;;;;;;;;;19.70;99.90;;;;;;5063877;28;19921;-50
2022/07/03 07:18:04;;;;;;;;;;;19.80;99.90;;;;;;5068480;28;20350;-52
2022/07/03 07:20:30;;;;;;;;;;;19.80;99.90;;;;;;5070672;28;19964;-51
2022/07/03 07:22:55;;;;;;;;;;;19.90;99.90;;;;;;5069505;28;19920;-52
2022/07/03 07:25:21;;;;;;;;;;;19.90;99.90;;;;;;5070483;28;20324;-51
2022/07/03 07:27:47;;;;;;;;;;;19.90;99.90;;;;;;5068393;28;19995;-49
2022/07/03 07:30:13;;;;;;;;;;;20.00;99.90;;;;;;5070182;28;19938;-49
2022/07/03 07:32:38;;;;;;;;;;;20.00;99.90;;;;;;5069875;28;19920;-49
2022/07/03 07:35:05;;;;;;;;;;;20.10;99.90;;;;;;5070157;28;19940;-49
2022/07/03 07:37:30;;;;;;;;;;;20.10;99.90;;;;;;5067028;28;19921;-52
2022/07/03 07:39:56;;;;;;;;;;;20.20;99.90;;;;;;5070443;28;19938;-49
2022/07/03 07:42:21;;;;;;;;;;;20.20;99.90;;;;;;5069019;28;19916;-50
2022/07/03 07:44:47;;;;;;;;;;;20.20;99.90;;;;;;5075166;28;20015;-51
2022/07/03 07:47:12;;;;;;;;;;;20.20;99.90;;;;;;5081712;28;20042;-51
2022/07/03 07:49:38;;;;;;;;;;;20.30;99.90;;;;;;5068906;28;19916;-49
2022/07/03 07:52:03;;;;;;;;;;;20.40;99.90;;;;;;5075223;28;19969;-52
2022/07/03 07:54:29;;;;;;;;;;;20.50;99.90;;;;;;5050538;28;19923;-49
2022/07/03 07:56:54;;;;;;;;;;;20.60;99.90;;;;;;5054092;28;19927;-52
2022/07/03 07:59:20;;;;;;;;;;;20.60;99.90;;;;;;5085373;28;19923;-50
2022/07/03 08:07:13;;;;;;;;;;;20.80;99.90;;;;;;5080243;28;20362;-49
2022/07/03 08:09:39;;;;;;;;;;;20.90;99.90;;;;;;5054154;28;19964;-54
2022/07/03 08:12:04;;;;;;;;;;;20.90;99.90;;;;;;5069827;28;20044;-52
2022/07/03 08:14:30;;;;;;;;;;;21.00;99.90;;;;;;5073671;28;19916;-53
2022/07/03 08:16:55;;;;;;;;;;;21.00;99.90;;;;;;5071387;28;19993;-55
2022/07/03 08:19:21;;;;;;;;;;;21.10;99.90;;;;;;5091345;28;19920;-56
2022/07/03 08:21:46;;;;;;;;;;;21.10;99.90;;;;;;5067204;28;19916;-53
2022/07/03 08:24:12;;;;;;;;;;;21.10;99.90;;;;;;5093084;28;19916;-53
2022/07/03 08:26:38;;;;;;;;;;;21.10;99.90;;;;;;5075282;28;19923;-53
2022/07/03 08:29:04;;;;;;;;;;;21.20;99.90;;;;;;5073885;28;20300;-56
2022/07/03 08:31:29;;;;;;;;;;;21.20;99.90;;;;;;5073465;28;19928;-56
2022/07/03 08:33:55;;;;;;;;;;;21.30;99.90;;;;;;5089991;28;20621;-52
2022/07/03 08:36:20;;;;;;;;;;;21.30;99.90;;;;;;5080351;28;20007;-55
2022/07/03 08:38:46;;;;;;;;;;;21.30;99.90;;;;;;5071426;28;19916;-52
2022/07/03 08:41:12;;;;;;;;;;;21.40;99.90;;;;;;5080623;28;20423;-50
2022/07/03 08:43:38;;;;;;;;;;;21.40;99.90;;;;;;5083229;28;19916;-55
2022/07/03 08:46:05;;;;;;;;;;;21.40;99.90;;;;;;5053210;28;19917;-53
2022/07/03 08:48:32;;;;;;;;;;;21.40;99.90;;;;;;5069572;28;19920;-51
2022/07/03 08:50:58;;;;;;;;;;;21.50;99.90;;;;;;5073044;28;20015;-49
2022/07/03 08:53:24;;;;;;;;;;;21.50;99.90;;;;;;5064045;28;19928;-51
2022/07/03 08:55:50;;;;;;;;;;;21.60;99.90;;;;;;5052664;28;19920;-50
2022/07/03 08:58:18;;;;;;;;;;;21.60;99.90;;;;;;5053601;28;19917;-50
2022/07/03 09:00:44;;;;;;;;;;;21.70;99.90;;;;;;5051953;28;19917;-53
2022/07/03 09:03:10;;;;;;;;;;;21.70;99.90;;;;;;5052129;28;20406;-49
2022/07/03 09:05:36;;;;;;;;;;;21.70;99.80;;;;;;5053032;28;20504;-50
2022/07/03 09:08:02;;;;;;;;;;;21.70;99.90;;;;;;5052639;28;19917;-53
2022/07/03 09:10:28;;;;;;;;;;;21.70;99.90;;;;;;5065646;28;20472;-49
2022/07/03 09:12:54;;;;;;;;;;;21.70;99.90;;;;;;5071989;28;19931;-50
2022/07/03 09:15:21;;;;;;;;;;;21.70;99.80;;;;;;5072215;28;19920;-50
2022/07/03 09:17:58;;;;;;;;;;;21.70;99.40;;;;;;5071875;28;20292;-51
2022/07/03 09:20:49;;;;;;;;;;;21.80;99.90;;;;;;5073708;28;19916;-50
2022/07/03 09:23:22;;;;;;;;;;;21.80;99.20;;;;;;5078701;28;20397;-53
2022/07/03 09:25:51;;;;;;;;;;;21.80;99.70;;;;;;5076251;28;20018;-50
2022/07/03 09:28:18;;;;;;;;;;;22.00;99.90;;;;;;5091683;28;20400;-53
2022/07/03 09:30:55;;;;;;;;;;;22.00;99.90;;;;;;5084466;28;20408;-49
2022/07/03 09:33:21;;;;;;;;;;;22.10;99.90;;;;;;5070713;28;20141;-51
2022/07/03 09:35:51;;;;;;;;;;;22.00;99.90;;;;;;5074892;28;20351;-53
2022/07/03 09:38:17;;;;;;;;;;;21.90;99.90;;;;;;5068898;28;20441;-50
2022/07/03 09:40:53;;;;;;;;;;;21.90;99.90;;;;;;5067375;28;20022;-53
2022/07/03 09:43:27;;;;;;;;;;;21.80;99.70;;;;;;5049768;28;20392;-50
2022/07/03 09:46:00;;;;;;;;;;;21.70;99.90;;;;;;5053402;28;19928;-53
2022/07/03 09:48:27;;;;;;;;;;;21.60;99.60;;;;;;5052499;28;20291;-53
2022/07/03 09:51:09;;;;;;;;;;;21.60;99.90;;;;;;5050829;28;19924;-52
2022/07/03 09:53:44;;;;;;;;;;;21.60;99.90;;;;;;5051435;28;19962;-52
2022/07/03 09:56:10;;;;;;;;;;;21.70;99.90;;;;;;5051262;28;20462;-53
2022/07/03 09:58:35;;;;;;;;;;;21.80;99.50;;;;;;5052432;28;19920;-55
2022/07/03 10:01:19;;;;;;;;;;;21.80;99.90;;;;;;5052249;28;19965;-50
2022/07/03 10:03:47;;;;;;;;;;;21.80;98.90;;;;;;5051256;28;19924;-51
2022/07/03 10:06:13;;;;;;;;;;;21.80;99.70;;;;;;5051563;28;19920;-51
2022/07/03 10:08:39;;;;;;;;;;;21.90;99.90;;;;;;5059609;28;19923;-53
2022/07/03 10:11:04;;;;;;;;;;;22.00;99.00;;;;;;5070899;28;20305;-53
2022/07/03 10:13:30;;;;;;;;;;;22.10;99.80;;;;;;5074014;28;19920;-50
2022/07/03 10:15:57;;;;;;;;;;;22.20;98.70;;;;;;5057467;28;20513;-50
2022/07/03 10:18:27;;;;;;;;;;;22.20;98.50;;;;;;5082027;28;20299;-50
2022/07/03 10:20:55;;;;;;;;;;;22.30;99.40;;;;;;5079819;28;19927;-50
2022/07/03 10:23:21;;;;;;;;;;;22.30;98.50;;;;;;5073055;28;20112;-52
2022/07/03 10:25:49;;;;;;;;;;;22.30;98.10;;;;;;5074303;28;20403;-54
2022/07/03 10:28:16;;;;;;;;;;;22.40;97.80;;;;;;5080895;28;20376;-53
2022/07/03 10:30:43;;;;;;;;;;;22.40;98.00;;;;;;5072750;28;19973;-52
2022/07/03 10:33:08;;;;;;;;;;;22.40;97.60;;;;;;5070089;28;19963;-50
2022/07/03 10:35:36;;;;;;;;;;;22.40;97.70;;;;;;5052455;28;19972;-53
2022/07/03 10:38:01;;;;;;;;;;;22.40;96.90;;;;;;5066593;28;19920;-52
2022/07/03 10:46:23;;;;;;;;;;;22.70;97.10;;;;;;5084968;28;20377;-50
2022/07/03 10:48:54;;;;;;;;;;;22.70;96.90;;;;;;5073846;28;19916;-50
2022/07/03 10:51:20;;;;;;;;;;;22.80;97.00;;;;;;5090668;28;20316;-51
2022/07/03 10:53:46;;;;;;;;;;;22.80;96.80;;;;;;5082091;28;19924;-53
2022/07/03 10:56:12;;;;;;;;;;;22.80;96.00;;;;;;5060366;28;20301;-51
2022/07/03 10:58:56;;;;;;;;;;;23.00;96.60;;;;;;5050631;28;19917;-50
2022/07/03 11:01:28;;;;;;;;;;;23.00;96.90;;;;;;5075908;28;19973;-51
2022/07/03 11:03:57;;;;;;;;;;;23.10;96.50;;;;;;5089948;28;19923;-53
2022/07/03 11:06:42;;;;;;;;;;;23.10;96.60;;;;;;5069132;28;19916;-53
2022/07/03 11:09:11;;;;;;;;;;;23.10;96.20;;;;;;5071614;28;19923;-51
2022/07/03 11:11:55;;;;;;;;;;;23.10;95.50;;;;;;5090235;28;19968;-50
2022/07/03 11:14:21;;;;;;;;;;;23.20;96.70;;;;;;5063424;28;20389;-52
2022/07/03 11:16:47;;;;;;;;;;;23.30;95.60;;;;;;5069048;28;19924;-50
2022/07/03 11:19:14;;;;;;;;;;;23.30;95.30;;;;;;5071838;28;19920;-52
2022/07/03 11:21:50;;;;;;;;;;;23.30;94.10;;;;;;5089824;28;20404;-51
2022/07/03 11:24:32;;;;;;;;;;;23.30;94.40;;;;;;5087506;28;19954;-50
2022/07/03 11:27:14;;;;;;;;;;;23.20;94.20;;;;;;5071136;28;20010;-50
2022/07/03 11:29:40;;;;;;;;;;;23.20;94.20;;;;;;5071638;28;20014;-51
2022/07/03 11:32:24;;;;;;;;;;;23.10;95.00;;;;;;5086414;28;19999;-51
2022/07/03 11:34:49;;;;;;;;;;;23.00;95.40;;;;;;5087475;28;20337;-51
2022/07/03 11:37:22;;;;;;;;;;;23.10;95.10;;;;;;5072880;28;20021;-55
2022/07/03 11:39:50;;;;;;;;;;;23.20;94.70;;;;;;5078912;28;20062;-53
2022/07/03 11:42:17;;;;;;;;;;;23.20;95.00;;;;;;5078160;28;19938;-51
2022/07/03 11:44:43;;;;;;;;;;;23.30;94.90;;;;;;5071154;28;20335;-54
2022/07/03 11:47:09;;;;;;;;;;;23.30;95.00;;;;;;5065586;28;19924;-51
2022/07/03 11:49:35;;;;;;;;;;;23.30;94.50;;;;;;5050298;28;19924;-53
2022/07/03 11:52:01;;;;;;;;;;;23.30;95.50;;;;;;5086353;28;19924;-51
2022/07/03 11:54:48;;;;;;;;;;;23.40;94.60;;;;;;5058424;28;20386;-50
2022/07/03 11:57:14;;;;;;;;;;;23.40;93.90;;;;;;5074503;28;19971;-50
2022/07/03 11:59:39;;;;;;;;;;;23.40;94.50;;;;;;5062571;28;20408;-56
2022/07/03 12:02:05;;;;;;;;;;;23.40;94.90;;;;;;5088566;28;19923;-51
2022/07/03 12:04:31;;;;;;;;;;;23.30;94.50;;;;;;5071343;28;20003;-50
2022/07/03 12:06:57;;;;;;;;;;;23.30;94.80;;;;;;5068905;28;19924;-50
2022/07/03 12:09:33;;;;;;;;;;;23.30;95.40;;;;;;5068309;28;20433;-52
2022/07/03 12:11:58;;;;;;;;;;;23.30;95.20;;;;;;5085543;28;19916;-53
2022/07/03 12:14:42;;;;;;;;;;;23.40;96.70;;;;;;5088633;28;20371;-54
2022/07/03 12:17:09;;;;;;;;;;;23.50;94.00;;;;;;5088039;28;19939;-54
2022/07/03 12:19:35;;;;;;;;;;;23.40;95.80;;;;;;5053373;28;19916;-54
2022/07/03 12:22:00;;;;;;;;;;;23.50;95.50;;;;;;5054099;28;19978;-51
2022/07/03 12:24:26;;;;;;;;;;;23.70;95.10;;;;;;5068915;28;19916;-50
2022/07/03 12:26:52;;;;;;;;;;;23.70;95.30;;;;;;5071059;28;19917;-50
2022/07/03 12:29:18;;;;;;;;;;;23.80;94.80;;;;;;5055220;28;19917;-51
2022/07/03 12:31:44;;;;;;;;;;;23.80;94.20;;;;;;5076430;28;19923;-54
2022/07/03 12:34:10;;;;;;;;;;;23.80;95.60;;;;;;5058631;28;19923;-51
2022/07/03 12:36:36;;;;;;;;;;;23.80;93.50;;;;;;5055642;28;19924;-51
2022/07/03 12:39:02;;;;;;;;;;;23.60;92.50;;;;;;5050907;28;19917;-51
2022/07/03 12:41:27;;;;;;;;;;;23.50;92.50;;;;;;5069753;28;20368;-51
2022/07/03 12:43:54;;;;;;;;;;;23.40;92.40;;;;;;5083548;28;19967;-51
2022/07/03 12:46:22;;;;;;;;;;;23.20;92.70;;;;;;5067676;28;19916;-51
2022/07/03 12:48:48;;;;;;;;;;;23.10;93.10;;;;;;5076137;28;19946;-51
2022/07/03 12:51:14;;;;;;;;;;;23.10;94.00;;;;;;5050732;28;19977;-51
2022/07/03 12:53:41;;;;;;;;;;;23.10;94.10;;;;;;5083345;28;20442;-50
2022/07/03 12:56:07;;;;;;;;;;;23.20;94.40;;;;;;5076992;28;20304;-53
2022/07/03 13:01:24;;;;;;;;;;;23.40;93.90;;;;;;5074027;28;20339;-51
2022/07/03 13:03:49;;;;;;;;;;;23.40;93.80;;;;;;5074905;28;19920;-54
2022/07/03 13:06:15;;;;;;;;;;;23.40;93.00;;;;;;5072639;28;20381;-53
2022/07/03 13:08:56;;;;;;;;;;;23.40;93.50;;;;;;5080423;28;19920;-50
2022/07/03 13:11:31;;;;;;;;;;;23.50;93.20;;;;;;5077989;28;19931;-54
2022/07/03 13:14:03;;;;;;;;;;;23.50;93.80;;;;;;5082275;28;19920;-51
2022/07/03 13:16:29;;;;;;;;;;;23.50;93.10;;;;;;5074292;28;19927;-52
2022/07/03 13:19:00;;;;;;;;;;;23.60;90.60;;;;;;5073350;28;19917;-51
2022/07/03 13:21:26;;;;;;;;;;;23.60;91.80;;;;;;5065469;28;20071;-51
2022/07/03 13:23:51;;;;;;;;;;;23.60;92.90;;;;;;5074933;28;20322;-51
2022/07/03 13:26:17;;;;;;;;;;;23.50;93.50;;;;;;5073841;28;19923;-53
2022/07/03 13:28:42;;;;;;;;;;;23.50;93.60;;;;;;5072392;28;20282;-54
2022/07/03 13:31:08;;;;;;;;;;;23.50;93.30;;;;;;5065381;28;19917;-51
2022/07/03 13:33:33;;;;;;;;;;;23.60;93.00;;;;;;5072093;28;19916;-51
2022/07/03 13:35:59;;;;;;;;;;;23.60;92.90;;;;;;5072522;28;19927;-52
2022/07/03 13:38:24;;;;;;;;;;;23.60;93.10;;;;;;5090954;28;20511;-53
2022/07/03 13:40:50;;;;;;;;;;;23.60;93.60;;;;;;5083247;28;19916;-50
2022/07/03 13:43:15;;;;;;;;;;;23.60;93.50;;;;;;5072774;28;19947;-52
2022/07/03 13:45:41;;;;;;;;;;;23.60;93.90;;;;;;5062385;28;19921;-53
2022/07/03 13:48:06;;;;;;;;;;;23.50;94.30;;;;;;5082402;28;19916;-50
2022/07/03 13:50:31;;;;;;;;;;;23.10;93.30;;;;;;5088710;28;20345;-51
2022/07/03 13:52:57;;;;;;;;;;;22.70;93.50;;;;;;5072337;28;20389;-51
2022/07/03 13:55:22;;;;;;;;;;;22.20;94.30;;;;;;5072035;28;19916;-50
2022/07/03 13:57:48;;;;;;;;;;;21.50;95.20;;;;;;5082926;28;19916;-51
2022/07/03 14:00:15;;;;;;;;;;;20.90;96.30;;;;;;5092514;28;20335;-50
2022/07/03 14:02:41;;;;;;;;;;;20.50;97.60;;;;;;5073957;28;19920;-56
2022/07/03 14:05:06;;;;;;;;;;;20.30;99.20;;;;;;5064460;28;20255;-51
2022/07/03 14:07:32;;;;;;;;;;;20.30;99.90;;;;;;5078841;28;19923;-50
2022/07/03 14:09:57;;;;;;;;;;;20.40;99.90;;;;;;5091984;28;20381;-52
2022/07/03 14:12:23;;;;;;;;;;;20.60;99.90;;;;;;5078498;28;19920;-51
2022/07/03 14:14:48;;;;;;;;;;;20.80;99.90;;;;;;5071467;28;19916;-50
2022/07/03 14:17:14;;;;;;;;;;;20.90;99.90;;;;;;5073688;28;19973;-50
2022/07/03 14:19:39;;;;;;;;;;;21.00;99.90;;;;;;5092150;28;19966;-49
2022/07/03 14:22:05;;;;;;;;;;;21.10;99.90;;;;;;5080667;28;19917;-50
2022/07/03 14:24:30;;;;;;;;;;;21.20;99.90;;;;;;5070787;28;19927;-50
2022/07/03 14:32:29;;;;;;;;;;;21.50;99.90;;;;;;5071192;28;19916;-53
2022/07/03 14:34:59;;;;;;;;;;;21.60;99.90;;;;;;5071201;28;20254;-50
2022/07/03 14:37:25;;;;;;;;;;;21.70;99.90;;;;;;5072875;28;19924;-50
2022/07/03 14:39:50;;;;;;;;;;;21.70;99.90;;;;;;5085139;28;19917;-53